Startpagina
METAR-TAF:

METAR-TAF

Vliegvelden :

Luchthaven Rundu

Rundu, Namibië

breedte: 17-57-20S, lengte: 019-43-25E, hoogte: 1106 m

Actueel weer

Dit bericht is 46 minuten geleden gemaakt, om 10:00 UTC
Wind 2 kt uit het noordnoordoosten
Temperatuur 29°C
Vochtigheid 13%
Druk 1024 hPa
Zicht 10 km of meer
geen wolken onder 1500 m en geen cumulonimbus

METAR: FYRU 251000Z 03002KT CAVOK 29/M02 Q1024

Tijdstip: 12:46 (10:46 UTC)

Verwachting

Dit bericht is 8 uur en het 46 minuten geleden gemaakt, om 02:00 UTC
Verwachting geldig van 25 om 03 UTC tot 25 om 12 UTC
Wind kt uit het noorden
Zicht 10 km of meer
geen wolken onder 1500 m en geen cumulonimbus

TAF: FYRU 250200Z 2503/2512 00000KT CAVOK

Waarnemingen en weersverwachtingen van meer dan 4000 vliegvelden (METAR en TAF).

De beschikbare stations zijn de gele en rode punten op de kaart.

Ga met uw muis naar het station om de naam te zien.

Klik dan om waarnemingen en weersverwachtingen te zien.

kaart wijzigen: klik op de groene knoppen met een zwart kruis om in te zoomen, op de groene knop met een streepje om uit te zoomen of op de groene pijlen voor aangrenzende kaarten.


METAR-TAF: